sensor_id;sensor_type;location;lat;lon;timestamp;P1;durP1;ratioP1;P2;durP2;ratioP2
12958;SDS011;6544;51.666;6.634;2023-03-14T00:02:22;6.65;;;2.40;;
12958;SDS011;6544;51.666;6.634;2023-03-14T00:04:49;6.45;;;2.33;;
12958;SDS011;6544;51.666;6.634;2023-03-14T00:07:16;7.43;;;2.60;;
12958;SDS011;6544;51.666;6.634;2023-03-14T00:09:44;7.38;;;2.42;;
12958;SDS011;6544;51.666;6.634;2023-03-14T00:12:11;8.10;;;3.05;;
12958;SDS011;6544;51.666;6.634;2023-03-14T00:14:39;10.02;;;2.70;;
12958;SDS011;6544;51.666;6.634;2023-03-14T00:17:07;6.25;;;2.55;;
12958;SDS011;6544;51.666;6.634;2023-03-14T00:19:34;8.40;;;2.50;;
12958;SDS011;6544;51.666;6.634;2023-03-14T00:22:01;7.50;;;2.60;;
12958;SDS011;6544;51.666;6.634;2023-03-14T00:24:28;8.80;;;2.65;;
12958;SDS011;6544;51.666;6.634;2023-03-14T00:26:56;9.15;;;2.65;;
12958;SDS011;6544;51.666;6.634;2023-03-14T00:29:23;5.85;;;2.40;;
12958;SDS011;6544;51.666;6.634;2023-03-14T00:31:50;8.85;;;2.55;;
12958;SDS011;6544;51.666;6.634;2023-03-14T00:34:18;8.13;;;2.45;;
12958;SDS011;6544;51.666;6.634;2023-03-14T00:36:45;7.32;;;2.65;;
12958;SDS011;6544;51.666;6.634;2023-03-14T00:39:12;9.05;;;2.65;;
12958;SDS011;6544;51.666;6.634;2023-03-14T00:41:38;6.35;;;2.10;;
12958;SDS011;6544;51.666;6.634;2023-03-14T00:44:07;5.63;;;2.13;;
12958;SDS011;6544;51.666;6.634;2023-03-14T00:46:33;6.13;;;2.50;;
12958;SDS011;6544;51.666;6.634;2023-03-14T00:49:00;8.02;;;2.30;;
12958;SDS011;6544;51.666;6.634;2023-03-14T00:51:27;8.18;;;2.53;;
12958;SDS011;6544;51.666;6.634;2023-03-14T00:53:54;10.02;;;2.40;;
12958;SDS011;6544;51.666;6.634;2023-03-14T00:56:21;5.28;;;2.13;;
12958;SDS011;6544;51.666;6.634;2023-03-14T00:58:48;7.25;;;2.83;;
12958;SDS011;6544;51.666;6.634;2023-03-14T01:01:17;7.70;;;2.53;;
12958;SDS011;6544;51.666;6.634;2023-03-14T01:03:44;9.00;;;2.75;;
12958;SDS011;6544;51.666;6.634;2023-03-14T01:06:12;7.65;;;2.50;;
12958;SDS011;6544;51.666;6.634;2023-03-14T01:08:41;9.88;;;2.40;;
12958;SDS011;6544;51.666;6.634;2023-03-14T01:11:10;6.65;;;2.28;;
12958;SDS011;6544;51.666;6.634;2023-03-14T01:13:39;9.13;;;2.97;;
12958;SDS011;6544;51.666;6.634;2023-03-14T01:16:06;8.10;;;2.60;;
12958;SDS011;6544;51.666;6.634;2023-03-14T01:18:37;4.30;;;1.88;;
12958;SDS011;6544;51.666;6.634;2023-03-14T01:21:09;8.30;;;2.38;;
12958;SDS011;6544;51.666;6.634;2023-03-14T01:23:37;5.10;;;2.00;;
12958;SDS011;6544;51.666;6.634;2023-03-14T01:26:04;6.30;;;2.25;;
12958;SDS011;6544;51.666;6.634;2023-03-14T01:28:34;7.20;;;1.98;;
12958;SDS011;6544;51.666;6.634;2023-03-14T01:31:02;9.25;;;2.60;;
12958;SDS011;6544;51.666;6.634;2023-03-14T01:33:29;9.23;;;2.25;;
12958;SDS011;6544;51.666;6.634;2023-03-14T01:35:57;5.85;;;2.40;;
12958;SDS011;6544;51.666;6.634;2023-03-14T01:38:24;6.97;;;2.40;;
12958;SDS011;6544;51.666;6.634;2023-03-14T01:40:51;8.23;;;2.30;;
12958;SDS011;6544;51.666;6.634;2023-03-14T01:43:18;7.30;;;2.10;;
12958;SDS011;6544;51.666;6.634;2023-03-14T01:46:06;5.70;;;2.00;;
12958;SDS011;6544;51.666;6.634;2023-03-14T01:48:48;6.07;;;2.33;;
12958;SDS011;6544;51.666;6.634;2023-03-14T01:51:22;6.90;;;2.20;;
12958;SDS011;6544;51.666;6.634;2023-03-14T01:53:52;7.32;;;2.40;;
12958;SDS011;6544;51.666;6.634;2023-03-14T01:56:24;8.10;;;2.30;;
12958;SDS011;6544;51.666;6.634;2023-03-14T01:58:52;6.45;;;1.98;;
12958;SDS011;6544;51.666;6.634;2023-03-14T02:01:20;9.23;;;2.15;;
12958;SDS011;6544;51.666;6.634;2023-03-14T02:03:52;9.32;;;2.33;;
12958;SDS011;6544;51.666;6.634;2023-03-14T02:06:23;7.40;;;2.15;;
12958;SDS011;6544;51.666;6.634;2023-03-14T02:08:52;4.68;;;1.75;;
12958;SDS011;6544;51.666;6.634;2023-03-14T02:11:21;6.60;;;2.28;;
12958;SDS011;6544;51.666;6.634;2023-03-14T02:13:52;5.63;;;1.90;;
12958;SDS011;6544;51.666;6.634;2023-03-14T02:16:19;8.88;;;2.00;;
12958;SDS011;6544;51.666;6.634;2023-03-14T02:18:46;6.97;;;2.00;;
12958;SDS011;6544;51.666;6.634;2023-03-14T02:21:14;4.47;;;1.77;;
12958;SDS011;6544;51.666;6.634;2023-03-14T02:23:51;7.43;;;2.35;;
12958;SDS011;6544;51.666;6.634;2023-03-14T02:26:25;4.03;;;1.80;;
12958;SDS011;6544;51.666;6.634;2023-03-14T02:28:57;8.02;;;2.33;;
12958;SDS011;6544;51.666;6.634;2023-03-14T02:31:24;5.32;;;1.83;;
12958;SDS011;6544;51.666;6.634;2023-03-14T02:33:51;5.22;;;2.00;;
12958;SDS011;6544;51.666;6.634;2023-03-14T02:36:18;8.95;;;1.85;;
12958;SDS011;6544;51.666;6.634;2023-03-14T02:38:47;9.05;;;2.00;;
12958;SDS011;6544;51.666;6.634;2023-03-14T02:41:19;7.18;;;1.92;;
12958;SDS011;6544;51.666;6.634;2023-03-14T02:43:46;6.72;;;2.00;;
12958;SDS011;6544;51.666;6.634;2023-03-14T02:46:15;7.80;;;2.20;;
12958;SDS011;6544;51.666;6.634;2023-03-14T02:48:45;9.82;;;2.05;;
12958;SDS011;6544;51.666;6.634;2023-03-14T02:51:15;4.72;;;2.05;;
12958;SDS011;6544;51.666;6.634;2023-03-14T02:53:42;8.15;;;2.28;;
12958;SDS011;6544;51.666;6.634;2023-03-14T02:56:09;6.80;;;2.17;;
12958;SDS011;6544;51.666;6.634;2023-03-14T02:58:36;6.22;;;1.83;;
12958;SDS011;6544;51.666;6.634;2023-03-14T03:01:03;5.82;;;2.13;;
12958;SDS011;6544;51.666;6.634;2023-03-14T03:03:32;8.00;;;2.42;;
12958;SDS011;6544;51.666;6.634;2023-03-14T03:05:59;10.93;;;2.35;;
12958;SDS011;6544;51.666;6.634;2023-03-14T03:08:26;5.88;;;2.40;;
12958;SDS011;6544;51.666;6.634;2023-03-14T03:10:54;4.95;;;1.92;;
12958;SDS011;6544;51.666;6.634;2023-03-14T03:13:23;9.70;;;2.10;;
12958;SDS011;6544;51.666;6.634;2023-03-14T03:15:50;5.80;;;2.15;;
12958;SDS011;6544;51.666;6.634;2023-03-14T03:18:17;9.10;;;2.22;;
12958;SDS011;6544;51.666;6.634;2023-03-14T03:20:45;8.32;;;2.00;;
12958;SDS011;6544;51.666;6.634;2023-03-14T03:23:12;6.63;;;2.17;;
12958;SDS011;6544;51.666;6.634;2023-03-14T03:25:39;8.43;;;2.30;;
12958;SDS011;6544;51.666;6.634;2023-03-14T03:28:06;9.05;;;2.03;;
12958;SDS011;6544;51.666;6.634;2023-03-14T03:30:35;9.43;;;2.40;;
12958;SDS011;6544;51.666;6.634;2023-03-14T03:33:03;5.93;;;2.10;;
12958;SDS011;6544;51.666;6.634;2023-03-14T03:35:30;6.07;;;2.00;;
12958;SDS011;6544;51.666;6.634;2023-03-14T03:37:59;7.88;;;2.28;;
12958;SDS011;6544;51.666;6.634;2023-03-14T03:40:26;9.02;;;2.28;;
12958;SDS011;6544;51.666;6.634;2023-03-14T03:42:53;6.38;;;2.33;;
12958;SDS011;6544;51.666;6.634;2023-03-14T03:45:20;10.20;;;2.20;;
12958;SDS011;6544;51.666;6.634;2023-03-14T03:47:46;6.05;;;2.10;;
12958;SDS011;6544;51.666;6.634;2023-03-14T03:50:13;5.20;;;2.08;;
12958;SDS011;6544;51.666;6.634;2023-03-14T03:52:40;9.70;;;2.47;;
12958;SDS011;6544;51.666;6.634;2023-03-14T03:55:09;7.15;;;2.08;;
12958;SDS011;6544;51.666;6.634;2023-03-14T03:57:36;8.25;;;2.38;;
12958;SDS011;6544;51.666;6.634;2023-03-14T04:00:03;9.20;;;2.70;;
12958;SDS011;6544;51.666;6.634;2023-03-14T04:02:31;7.82;;;2.30;;
12958;SDS011;6544;51.666;6.634;2023-03-14T04:04:58;8.68;;;2.28;;
12958;SDS011;6544;51.666;6.634;2023-03-14T04:07:24;9.13;;;2.10;;
12958;SDS011;6544;51.666;6.634;2023-03-14T04:09:51;8.57;;;2.10;;
12958;SDS011;6544;51.666;6.634;2023-03-14T04:12:19;10.75;;;2.30;;
12958;SDS011;6544;51.666;6.634;2023-03-14T04:14:46;7.45;;;2.13;;
12958;SDS011;6544;51.666;6.634;2023-03-14T04:17:13;10.82;;;2.30;;
12958;SDS011;6544;51.666;6.634;2023-03-14T04:19:40;10.95;;;2.70;;
12958;SDS011;6544;51.666;6.634;2023-03-14T04:22:07;10.50;;;2.33;;
12958;SDS011;6544;51.666;6.634;2023-03-14T04:24:34;7.18;;;2.83;;
12958;SDS011;6544;51.666;6.634;2023-03-14T04:27:01;7.85;;;2.35;;
12958;SDS011;6544;51.666;6.634;2023-03-14T04:29:30;8.98;;;2.28;;
12958;SDS011;6544;51.666;6.634;2023-03-14T04:31:56;9.00;;;2.05;;
12958;SDS011;6544;51.666;6.634;2023-03-14T04:34:23;6.72;;;2.28;;
12958;SDS011;6544;51.666;6.634;2023-03-14T04:36:50;6.63;;;2.00;;
12958;SDS011;6544;51.666;6.634;2023-03-14T04:39:17;7.65;;;2.38;;
12958;SDS011;6544;51.666;6.634;2023-03-14T04:41:44;11.50;;;2.83;;
12958;SDS011;6544;51.666;6.634;2023-03-14T04:44:11;9.02;;;2.75;;
12958;SDS011;6544;51.666;6.634;2023-03-14T04:46:39;10.07;;;2.13;;
12958;SDS011;6544;51.666;6.634;2023-03-14T04:49:06;7.97;;;2.45;;
12958;SDS011;6544;51.666;6.634;2023-03-14T04:51:33;5.93;;;2.10;;
12958;SDS011;6544;51.666;6.634;2023-03-14T04:54:00;6.78;;;2.05;;
12958;SDS011;6544;51.666;6.634;2023-03-14T04:56:27;8.18;;;2.10;;
12958;SDS011;6544;51.666;6.634;2023-03-14T04:58:54;6.05;;;1.90;;
12958;SDS011;6544;51.666;6.634;2023-03-14T05:01:21;6.25;;;2.30;;
12958;SDS011;6544;51.666;6.634;2023-03-14T05:03:49;5.00;;;1.90;;
12958;SDS011;6544;51.666;6.634;2023-03-14T05:06:16;6.20;;;2.03;;
12958;SDS011;6544;51.666;6.634;2023-03-14T05:08:43;6.80;;;2.03;;
12958;SDS011;6544;51.666;6.634;2023-03-14T05:11:10;5.25;;;1.88;;
12958;SDS011;6544;51.666;6.634;2023-03-14T05:13:38;7.43;;;1.83;;
12958;SDS011;6544;51.666;6.634;2023-03-14T05:16:06;5.50;;;1.90;;
12958;SDS011;6544;51.666;6.634;2023-03-14T05:18:35;4.45;;;1.83;;
12958;SDS011;6544;51.666;6.634;2023-03-14T05:21:04;6.30;;;1.92;;
12958;SDS011;6544;51.666;6.634;2023-03-14T05:23:31;5.78;;;1.73;;
12958;SDS011;6544;51.666;6.634;2023-03-14T05:25:58;4.18;;;1.67;;
12958;SDS011;6544;51.666;6.634;2023-03-14T05:28:24;5.32;;;1.70;;
12958;SDS011;6544;51.666;6.634;2023-03-14T05:30:51;2.55;;;1.30;;
12958;SDS011;6544;51.666;6.634;2023-03-14T05:33:18;3.45;;;1.60;;
12958;SDS011;6544;51.666;6.634;2023-03-14T05:35:45;4.63;;;1.40;;
12958;SDS011;6544;51.666;6.634;2023-03-14T05:38:14;3.15;;;1.20;;
12958;SDS011;6544;51.666;6.634;2023-03-14T05:40:41;3.40;;;1.30;;
12958;SDS011;6544;51.666;6.634;2023-03-14T05:43:07;2.38;;;1.17;;
12958;SDS011;6544;51.666;6.634;2023-03-14T05:45:34;2.70;;;1.27;;
12958;SDS011;6544;51.666;6.634;2023-03-14T05:48:01;2.70;;;1.30;;
12958;SDS011;6544;51.666;6.634;2023-03-14T05:50:28;1.75;;;1.20;;
12958;SDS011;6544;51.666;6.634;2023-03-14T05:52:55;2.42;;;1.33;;
12958;SDS011;6544;51.666;6.634;2023-03-14T05:55:23;4.03;;;1.50;;
12958;SDS011;6544;51.666;6.634;2023-03-14T05:57:51;2.45;;;1.23;;
12958;SDS011;6544;51.666;6.634;2023-03-14T06:00:19;2.78;;;1.50;;
12958;SDS011;6544;51.666;6.634;2023-03-14T06:02:47;2.53;;;1.40;;
12958;SDS011;6544;51.666;6.634;2023-03-14T06:05:13;3.58;;;1.50;;
12958;SDS011;6544;51.666;6.634;2023-03-14T06:07:40;3.03;;;1.58;;
12958;SDS011;6544;51.666;6.634;2023-03-14T06:10:08;4.85;;;1.95;;
12958;SDS011;6544;51.666;6.634;2023-03-14T06:12:37;4.10;;;1.77;;
12958;SDS011;6544;51.666;6.634;2023-03-14T06:15:04;3.80;;;2.00;;
12958;SDS011;6544;51.666;6.634;2023-03-14T06:17:32;3.95;;;1.60;;
12958;SDS011;6544;51.666;6.634;2023-03-14T06:19:58;3.53;;;2.10;;
12958;SDS011;6544;51.666;6.634;2023-03-14T06:22:25;3.72;;;2.00;;
12958;SDS011;6544;51.666;6.634;2023-03-14T06:24:52;4.05;;;2.47;;
12958;SDS011;6544;51.666;6.634;2023-03-14T06:27:19;3.80;;;2.22;;
12958;SDS011;6544;51.666;6.634;2023-03-14T06:29:47;2.63;;;1.95;;
12958;SDS011;6544;51.666;6.634;2023-03-14T06:32:14;4.72;;;2.10;;
12958;SDS011;6544;51.666;6.634;2023-03-14T06:34:41;5.18;;;2.40;;
12958;SDS011;6544;51.666;6.634;2023-03-14T06:37:08;3.72;;;2.30;;
12958;SDS011;6544;51.666;6.634;2023-03-14T06:39:35;3.10;;;2.28;;
12958;SDS011;6544;51.666;6.634;2023-03-14T06:42:03;2.75;;;2.10;;
12958;SDS011;6544;51.666;6.634;2023-03-14T06:44:30;4.88;;;2.40;;
12958;SDS011;6544;51.666;6.634;2023-03-14T06:46:58;4.47;;;2.33;;
12958;SDS011;6544;51.666;6.634;2023-03-14T06:49:26;3.97;;;2.35;;
12958;SDS011;6544;51.666;6.634;2023-03-14T06:51:52;2.95;;;2.15;;
12958;SDS011;6544;51.666;6.634;2023-03-14T06:54:19;3.90;;;2.47;;
12958;SDS011;6544;51.666;6.634;2023-03-14T06:56:46;3.20;;;2.42;;
12958;SDS011;6544;51.666;6.634;2023-03-14T06:59:13;5.05;;;2.70;;
12958;SDS011;6544;51.666;6.634;2023-03-14T07:01:40;5.55;;;2.58;;
12958;SDS011;6544;51.666;6.634;2023-03-14T07:04:09;3.75;;;2.42;;
12958;SDS011;6544;51.666;6.634;2023-03-14T07:06:36;4.28;;;2.60;;
12958;SDS011;6544;51.666;6.634;2023-03-14T07:09:04;4.20;;;2.30;;
12958;SDS011;6544;51.666;6.634;2023-03-14T07:11:31;3.92;;;2.50;;
12958;SDS011;6544;51.666;6.634;2023-03-14T07:13:58;3.35;;;2.30;;
12958;SDS011;6544;51.666;6.634;2023-03-14T07:16:25;3.88;;;2.55;;
12958;SDS011;6544;51.666;6.634;2023-03-14T07:18:54;3.30;;;2.10;;
12958;SDS011;6544;51.666;6.634;2023-03-14T07:21:22;3.95;;;2.30;;
12958;SDS011;6544;51.666;6.634;2023-03-14T07:23:49;2.58;;;2.10;;
12958;SDS011;6544;51.666;6.634;2023-03-14T07:26:16;4.28;;;2.30;;
12958;SDS011;6544;51.666;6.634;2023-03-14T07:28:43;2.80;;;2.10;;
12958;SDS011;6544;51.666;6.634;2023-03-14T07:31:10;3.60;;;1.92;;
12958;SDS011;6544;51.666;6.634;2023-03-14T07:33:37;2.00;;;1.80;;
12958;SDS011;6544;51.666;6.634;2023-03-14T07:36:04;3.00;;;1.83;;
12958;SDS011;6544;51.666;6.634;2023-03-14T07:38:33;2.15;;;1.50;;
12958;SDS011;6544;51.666;6.634;2023-03-14T07:41:00;2.13;;;1.60;;
12958;SDS011;6544;51.666;6.634;2023-03-14T07:43:27;1.90;;;1.73;;
12958;SDS011;6544;51.666;6.634;2023-03-14T07:45:54;2.33;;;1.90;;
12958;SDS011;6544;51.666;6.634;2023-03-14T07:48:21;3.35;;;2.17;;
12958;SDS011;6544;51.666;6.634;2023-03-14T07:50:50;2.28;;;1.95;;
12958;SDS011;6544;51.666;6.634;2023-03-14T07:53:17;2.88;;;1.90;;
12958;SDS011;6544;51.666;6.634;2023-03-14T07:55:46;3.08;;;2.10;;
12958;SDS011;6544;51.666;6.634;2023-03-14T07:58:13;2.30;;;1.90;;
12958;SDS011;6544;51.666;6.634;2023-03-14T08:00:40;2.92;;;2.15;;
12958;SDS011;6544;51.666;6.634;2023-03-14T08:03:08;3.05;;;2.10;;
12958;SDS011;6544;51.666;6.634;2023-03-14T08:05:35;3.88;;;2.00;;
12958;SDS011;6544;51.666;6.634;2023-03-14T08:08:03;3.03;;;1.92;;
12958;SDS011;6544;51.666;6.634;2023-03-14T08:10:35;2.58;;;2.17;;
12958;SDS011;6544;51.666;6.634;2023-03-14T08:13:03;3.45;;;2.10;;
12958;SDS011;6544;51.666;6.634;2023-03-14T08:15:30;3.00;;;2.10;;
12958;SDS011;6544;51.666;6.634;2023-03-14T08:17:57;2.60;;;2.13;;
12958;SDS011;6544;51.666;6.634;2023-03-14T08:20:25;3.83;;;2.30;;
12958;SDS011;6544;51.666;6.634;2023-03-14T08:22:54;2.60;;;2.17;;
12958;SDS011;6544;51.666;6.634;2023-03-14T08:25:22;3.10;;;2.17;;
12958;SDS011;6544;51.666;6.634;2023-03-14T08:27:50;2.80;;;2.30;;
12958;SDS011;6544;51.666;6.634;2023-03-14T08:30:20;3.28;;;2.08;;
12958;SDS011;6544;51.666;6.634;2023-03-14T08:32:47;3.47;;;2.22;;
12958;SDS011;6544;51.666;6.634;2023-03-14T08:35:14;3.05;;;2.38;;
12958;SDS011;6544;51.666;6.634;2023-03-14T08:37:41;3.67;;;2.50;;
12958;SDS011;6544;51.666;6.634;2023-03-14T08:40:09;3.80;;;2.53;;
12958;SDS011;6544;51.666;6.634;2023-03-14T08:42:37;3.55;;;2.60;;
12958;SDS011;6544;51.666;6.634;2023-03-14T08:45:05;5.68;;;2.85;;
12958;SDS011;6544;51.666;6.634;2023-03-14T08:47:34;2.05;;;1.30;;
12958;SDS011;6544;51.666;6.634;2023-03-14T08:50:01;3.30;;;1.20;;
12958;SDS011;6544;51.666;6.634;2023-03-14T08:52:29;1.48;;;1.00;;
12958;SDS011;6544;51.666;6.634;2023-03-14T08:54:56;2.42;;;1.40;;
12958;SDS011;6544;51.666;6.634;2023-03-14T08:57:24;1.30;;;1.00;;
12958;SDS011;6544;51.666;6.634;2023-03-14T08:59:52;2.25;;;1.20;;
12958;SDS011;6544;51.666;6.634;2023-03-14T09:02:20;1.85;;;1.10;;
12958;SDS011;6544;51.666;6.634;2023-03-14T09:04:48;1.70;;;1.20;;
12958;SDS011;6544;51.666;6.634;2023-03-14T09:07:16;1.45;;;1.20;;
12958;SDS011;6544;51.666;6.634;2023-03-14T09:09:43;1.58;;;1.40;;
12958;SDS011;6544;51.666;6.634;2023-03-14T09:12:14;3.00;;;1.48;;
12958;SDS011;6544;51.666;6.634;2023-03-14T09:14:41;4.88;;;1.60;;
12958;SDS011;6544;51.666;6.634;2023-03-14T09:17:08;2.10;;;1.60;;
12958;SDS011;6544;51.666;6.634;2023-03-14T09:19:35;1.77;;;1.40;;
12958;SDS011;6544;51.666;6.634;2023-03-14T09:22:03;2.87;;;1.67;;
12958;SDS011;6544;51.666;6.634;2023-03-14T09:24:30;2.55;;;1.40;;
12958;SDS011;6544;51.666;6.634;2023-03-14T09:26:57;2.00;;;1.50;;
12958;SDS011;6544;51.666;6.634;2023-03-14T09:29:24;3.97;;;1.50;;
12958;SDS011;6544;51.666;6.634;2023-03-14T09:31:51;3.00;;;1.53;;
12958;SDS011;6544;51.666;6.634;2023-03-14T09:34:18;3.42;;;1.50;;
12958;SDS011;6544;51.666;6.634;2023-03-14T09:36:45;3.03;;;1.70;;
12958;SDS011;6544;51.666;6.634;2023-03-14T09:39:13;2.13;;;1.60;;
12958;SDS011;6544;51.666;6.634;2023-03-14T09:41:42;1.95;;;1.60;;
12958;SDS011;6544;51.666;6.634;2023-03-14T09:44:13;2.10;;;1.50;;
12958;SDS011;6544;51.666;6.634;2023-03-14T09:46:43;2.90;;;1.52;;
12958;SDS011;6544;51.666;6.634;2023-03-14T09:49:15;1.87;;;1.50;;
12958;SDS011;6544;51.666;6.634;2023-03-14T09:51:46;3.00;;;1.60;;
12958;SDS011;6544;51.666;6.634;2023-03-14T09:54:22;3.10;;;1.48;;
12958;SDS011;6544;51.666;6.634;2023-03-14T09:56:56;2.60;;;1.40;;
12958;SDS011;6544;51.666;6.634;2023-03-14T09:59:23;2.50;;;1.50;;
12958;SDS011;6544;51.666;6.634;2023-03-14T10:01:51;3.10;;;1.65;;
12958;SDS011;6544;51.666;6.634;2023-03-14T10:04:21;4.60;;;1.80;;
12958;SDS011;6544;51.666;6.634;2023-03-14T10:06:49;4.33;;;1.43;;
12958;SDS011;6544;51.666;6.634;2023-03-14T10:09:17;2.50;;;1.47;;
12958;SDS011;6544;51.666;6.634;2023-03-14T10:11:51;3.33;;;1.60;;
12958;SDS011;6544;51.666;6.634;2023-03-14T10:14:30;4.03;;;1.50;;
12958;SDS011;6544;51.666;6.634;2023-03-14T10:17:06;2.83;;;1.30;;
12958;SDS011;6544;51.666;6.634;2023-03-14T10:19:34;5.17;;;1.43;;
12958;SDS011;6544;51.666;6.634;2023-03-14T10:22:02;5.80;;;1.80;;
12958;SDS011;6544;51.666;6.634;2023-03-14T10:24:32;4.23;;;1.40;;
12958;SDS011;6544;51.666;6.634;2023-03-14T10:27:01;4.70;;;1.30;;
12958;SDS011;6544;51.666;6.634;2023-03-14T10:29:30;4.20;;;1.47;;
12958;SDS011;6544;51.666;6.634;2023-03-14T10:31:58;1.60;;;1.30;;
12958;SDS011;6544;51.666;6.634;2023-03-14T10:34:28;4.87;;;1.53;;
12958;SDS011;6544;51.666;6.634;2023-03-14T10:36:56;4.97;;;1.50;;
12958;SDS011;6544;51.666;6.634;2023-03-14T10:39:26;5.07;;;1.83;;
12958;SDS011;6544;51.666;6.634;2023-03-14T10:42:03;2.97;;;1.40;;
12958;SDS011;6544;51.666;6.634;2023-03-14T10:44:37;3.30;;;1.47;;
12958;SDS011;6544;51.666;6.634;2023-03-14T10:47:04;2.90;;;1.40;;
12958;SDS011;6544;51.666;6.634;2023-03-14T10:49:32;1.80;;;1.30;;
12958;SDS011;6544;51.666;6.634;2023-03-14T10:52:02;3.37;;;1.40;;
12958;SDS011;6544;51.666;6.634;2023-03-14T10:54:39;3.00;;;1.27;;
12958;SDS011;6544;51.666;6.634;2023-03-14T10:57:07;3.33;;;1.30;;
12958;SDS011;6544;51.666;6.634;2023-03-14T10:59:38;3.33;;;1.50;;
12958;SDS011;6544;51.666;6.634;2023-03-14T11:02:10;3.43;;;1.50;;
12958;SDS011;6544;51.666;6.634;2023-03-14T11:04:51;3.13;;;1.57;;
12958;SDS011;6544;51.666;6.634;2023-03-14T11:07:29;2.40;;;1.33;;
12958;SDS011;6544;51.666;6.634;2023-03-14T11:10:02;2.30;;;1.40;;
12958;SDS011;6544;51.666;6.634;2023-03-14T11:12:41;3.00;;;1.40;;
12958;SDS011;6544;51.666;6.634;2023-03-14T11:15:19;4.60;;;1.60;;
12958;SDS011;6544;51.666;6.634;2023-03-14T11:17:55;7.77;;;1.70;;
12958;SDS011;6544;51.666;6.634;2023-03-14T11:20:38;4.97;;;1.70;;
12958;SDS011;6544;51.666;6.634;2023-03-14T11:23:13;6.77;;;1.80;;
12958;SDS011;6544;51.666;6.634;2023-03-14T11:25:45;4.40;;;1.80;;
12958;SDS011;6544;51.666;6.634;2023-03-14T11:28:20;3.70;;;1.50;;
12958;SDS011;6544;51.666;6.634;2023-03-14T11:30:52;3.43;;;1.60;;
12958;SDS011;6544;51.666;6.634;2023-03-14T11:33:21;4.97;;;1.70;;
12958;SDS011;6544;51.666;6.634;2023-03-14T11:35:55;6.60;;;1.80;;
12958;SDS011;6544;51.666;6.634;2023-03-14T11:38:29;7.27;;;2.00;;
12958;SDS011;6544;51.666;6.634;2023-03-14T11:40:59;8.30;;;1.90;;
12958;SDS011;6544;51.666;6.634;2023-03-14T11:43:30;4.80;;;2.13;;
12958;SDS011;6544;51.666;6.634;2023-03-14T11:46:02;7.77;;;2.17;;
12958;SDS011;6544;51.666;6.634;2023-03-14T11:48:35;5.57;;;1.70;;
12958;SDS011;6544;51.666;6.634;2023-03-14T11:51:07;10.20;;;2.10;;
12958;SDS011;6544;51.666;6.634;2023-03-14T11:53:44;6.00;;;2.00;;
12958;SDS011;6544;51.666;6.634;2023-03-14T11:56:18;8.37;;;2.30;;
12958;SDS011;6544;51.666;6.634;2023-03-14T11:58:54;7.17;;;1.80;;
12958;SDS011;6544;51.666;6.634;2023-03-14T12:01:27;11.50;;;2.77;;
12958;SDS011;6544;51.666;6.634;2023-03-14T12:04:03;9.90;;;2.27;;
12958;SDS011;6544;51.666;6.634;2023-03-14T12:06:39;8.97;;;2.53;;
12958;SDS011;6544;51.666;6.634;2023-03-14T12:09:12;12.43;;;2.90;;
12958;SDS011;6544;51.666;6.634;2023-03-14T12:11:42;10.90;;;2.60;;
12958;SDS011;6544;51.666;6.634;2023-03-14T12:14:18;12.40;;;3.30;;
12958;SDS011;6544;51.666;6.634;2023-03-14T12:16:48;13.70;;;3.07;;
12958;SDS011;6544;51.666;6.634;2023-03-14T12:19:26;15.13;;;2.90;;
12958;SDS011;6544;51.666;6.634;2023-03-14T12:21:56;14.57;;;3.35;;
12958;SDS011;6544;51.666;6.634;2023-03-14T12:24:26;12.10;;;3.50;;
12958;SDS011;6544;51.666;6.634;2023-03-14T12:26:56;17.47;;;3.10;;
12958;SDS011;6544;51.666;6.634;2023-03-14T12:29:26;22.63;;;3.47;;
12958;SDS011;6544;51.666;6.634;2023-03-14T12:34:49;19.37;;;3.67;;
12958;SDS011;6544;51.666;6.634;2023-03-14T12:37:18;16.57;;;3.50;;
12958;SDS011;6544;51.666;6.634;2023-03-14T12:39:56;20.67;;;4.37;;
12958;SDS011;6544;51.666;6.634;2023-03-14T12:42:38;16.33;;;3.40;;
12958;SDS011;6544;51.666;6.634;2023-03-14T12:45:21;19.73;;;3.43;;
12958;SDS011;6544;51.666;6.634;2023-03-14T12:47:53;22.37;;;3.87;;
12958;SDS011;6544;51.666;6.634;2023-03-14T12:50:26;21.80;;;3.87;;
12958;SDS011;6544;51.666;6.634;2023-03-14T12:53:06;20.73;;;3.60;;
12958;SDS011;6544;51.666;6.634;2023-03-14T12:55:57;18.73;;;3.77;;
12958;SDS011;6544;51.666;6.634;2023-03-14T12:58:29;17.27;;;3.23;;
12958;SDS011;6544;51.666;6.634;2023-03-14T13:01:04;16.53;;;3.90;;
12958;SDS011;6544;51.666;6.634;2023-03-14T13:03:39;20.73;;;3.57;;
12958;SDS011;6544;51.666;6.634;2023-03-14T13:06:10;18.90;;;3.57;;
12958;SDS011;6544;51.666;6.634;2023-03-14T13:08:38;21.23;;;3.97;;
12958;SDS011;6544;51.666;6.634;2023-03-14T13:11:08;19.77;;;3.40;;
12958;SDS011;6544;51.666;6.634;2023-03-14T13:13:40;16.13;;;3.73;;
12958;SDS011;6544;51.666;6.634;2023-03-14T13:16:27;17.40;;;3.73;;
12958;SDS011;6544;51.666;6.634;2023-03-14T13:18:59;21.83;;;4.10;;
12958;SDS011;6544;51.666;6.634;2023-03-14T13:21:29;24.83;;;3.70;;
12958;SDS011;6544;51.666;6.634;2023-03-14T13:24:02;12.93;;;3.17;;
12958;SDS011;6544;51.666;6.634;2023-03-14T13:26:34;16.23;;;3.93;;
12958;SDS011;6544;51.666;6.634;2023-03-14T13:29:08;14.90;;;3.67;;
12958;SDS011;6544;51.666;6.634;2023-03-14T13:31:37;18.53;;;3.50;;
12958;SDS011;6544;51.666;6.634;2023-03-14T13:34:10;11.57;;;3.40;;
12958;SDS011;6544;51.666;6.634;2023-03-14T13:36:37;13.87;;;2.50;;
12958;SDS011;6544;51.666;6.634;2023-03-14T13:39:06;15.20;;;2.73;;
12958;SDS011;6544;51.666;6.634;2023-03-14T13:41:38;10.20;;;2.70;;
12958;SDS011;6544;51.666;6.634;2023-03-14T13:44:06;11.67;;;2.87;;
12958;SDS011;6544;51.666;6.634;2023-03-14T13:46:35;12.50;;;2.80;;
12958;SDS011;6544;51.666;6.634;2023-03-14T13:49:04;12.43;;;2.53;;
12958;SDS011;6544;51.666;6.634;2023-03-14T13:51:33;8.13;;;2.33;;
12958;SDS011;6544;51.666;6.634;2023-03-14T13:54:00;8.33;;;2.33;;
12958;SDS011;6544;51.666;6.634;2023-03-14T13:56:29;15.20;;;2.93;;
12958;SDS011;6544;51.666;6.634;2023-03-14T13:58:57;6.95;;;2.63;;
12958;SDS011;6544;51.666;6.634;2023-03-14T14:01:25;9.55;;;2.47;;
12958;SDS011;6544;51.666;6.634;2023-03-14T14:03:58;7.60;;;2.70;;
12958;SDS011;6544;51.666;6.634;2023-03-14T14:06:32;6.50;;;1.93;;
12958;SDS011;6544;51.666;6.634;2023-03-14T14:12:42;6.45;;;2.13;;
12958;SDS011;6544;51.666;6.634;2023-03-14T14:15:16;9.13;;;2.53;;
12958;SDS011;6544;51.666;6.634;2023-03-14T14:17:46;7.80;;;2.50;;
12958;SDS011;6544;51.666;6.634;2023-03-14T14:20:22;11.00;;;2.40;;
12958;SDS011;6544;51.666;6.634;2023-03-14T14:23:09;14.02;;;2.88;;
12958;SDS011;6544;51.666;6.634;2023-03-14T14:25:37;10.95;;;2.80;;
12958;SDS011;6544;51.666;6.634;2023-03-14T14:28:14;10.43;;;2.90;;
12958;SDS011;6544;51.666;6.634;2023-03-14T14:30:43;8.70;;;2.47;;
12958;SDS011;6544;51.666;6.634;2023-03-14T14:33:11;6.57;;;2.33;;
12958;SDS011;6544;51.666;6.634;2023-03-14T14:35:51;14.65;;;2.72;;
12958;SDS011;6544;51.666;6.634;2023-03-14T14:38:21;9.35;;;2.20;;
12958;SDS011;6544;51.666;6.634;2023-03-14T14:40:49;10.67;;;2.50;;
12958;SDS011;6544;51.666;6.634;2023-03-14T14:43:18;11.00;;;1.93;;
12958;SDS011;6544;51.666;6.634;2023-03-14T14:45:48;7.30;;;2.00;;
12958;SDS011;6544;51.666;6.634;2023-03-14T14:48:18;8.90;;;2.55;;
12958;SDS011;6544;51.666;6.634;2023-03-14T14:50:55;8.73;;;1.98;;
12958;SDS011;6544;51.666;6.634;2023-03-14T14:53:26;10.43;;;2.58;;
12958;SDS011;6544;51.666;6.634;2023-03-14T14:55:56;7.55;;;2.10;;
12958;SDS011;6544;51.666;6.634;2023-03-14T14:58:25;8.63;;;2.25;;
12958;SDS011;6544;51.666;6.634;2023-03-14T15:00:56;6.00;;;1.90;;
12958;SDS011;6544;51.666;6.634;2023-03-14T15:03:28;7.00;;;2.05;;
12958;SDS011;6544;51.666;6.634;2023-03-14T15:05:59;9.57;;;2.03;;
12958;SDS011;6544;51.666;6.634;2023-03-14T15:08:26;8.45;;;2.45;;
12958;SDS011;6544;51.666;6.634;2023-03-14T15:10:54;5.72;;;1.80;;
12958;SDS011;6544;51.666;6.634;2023-03-14T15:13:21;7.75;;;2.10;;
12958;SDS011;6544;51.666;6.634;2023-03-14T15:15:49;12.60;;;2.40;;
12958;SDS011;6544;51.666;6.634;2023-03-14T15:18:20;6.63;;;2.10;;
12958;SDS011;6544;51.666;6.634;2023-03-14T15:20:49;7.45;;;2.58;;